createdAt,value
2022-10-19T00:01:13.894Z,13.80
2022-10-19T00:03:42.514Z,13.80
2022-10-19T00:06:29.127Z,13.80
2022-10-19T00:09:01.378Z,13.80
2022-10-19T00:11:30.055Z,13.80
2022-10-19T00:13:59.987Z,13.80
2022-10-19T00:16:30.108Z,13.80
2022-10-19T00:18:59.591Z,13.80
2022-10-19T00:21:27.163Z,13.70
2022-10-19T00:23:54.434Z,13.80
2022-10-19T00:26:21.863Z,13.70
2022-10-19T00:28:50.121Z,13.70
2022-10-19T00:31:18.659Z,13.60
2022-10-19T00:33:47.327Z,13.60
2022-10-19T00:36:26.670Z,13.50
2022-10-19T00:38:54.948Z,13.50
2022-10-19T00:41:29.139Z,13.50
2022-10-19T00:44:13.562Z,13.50
2022-10-19T00:46:43.393Z,13.50
2022-10-19T00:49:20.994Z,13.50
2022-10-19T00:51:55.545Z,13.50
2022-10-19T00:54:23.922Z,13.50
2022-10-19T00:56:55.152Z,13.50
2022-10-19T00:59:25.557Z,13.50
2022-10-19T01:01:53.786Z,13.50
2022-10-19T01:04:24.389Z,13.40
2022-10-19T01:06:53.128Z,13.40
2022-10-19T01:09:20.487Z,13.40
2022-10-19T01:12:06.451Z,13.30
2022-10-19T01:15:06.513Z,13.30
2022-10-19T01:17:55.067Z,13.20
2022-10-19T01:20:54.190Z,13.20
2022-10-19T01:23:49.275Z,13.20
2022-10-19T01:26:35.304Z,13.20
2022-10-19T01:29:23.794Z,13.30
2022-10-19T01:32:03.228Z,13.30
2022-10-19T01:34:41.550Z,13.30
2022-10-19T01:37:20.148Z,13.30
2022-10-19T01:40:05.109Z,13.30
2022-10-19T01:42:41.724Z,13.30
2022-10-19T01:45:27.837Z,13.40
2022-10-19T01:48:02.424Z,13.30
2022-10-19T01:50:41.551Z,13.30
2022-10-19T01:53:11.206Z,13.30
2022-10-19T01:55:43.340Z,13.30
2022-10-19T01:58:14.789Z,13.30
2022-10-19T02:00:45.768Z,13.30
2022-10-19T02:03:14.329Z,13.30
2022-10-19T02:05:43.310Z,13.20
2022-10-19T02:08:19.077Z,13.20
2022-10-19T02:10:48.014Z,13.10
2022-10-19T02:13:16.951Z,13.00
2022-10-19T02:15:49.323Z,13.00
2022-10-19T02:18:22.011Z,12.80
2022-10-19T02:20:49.469Z,12.70
2022-10-19T02:23:21.335Z,12.70
2022-10-19T02:25:49.085Z,12.70
2022-10-19T02:28:17.082Z,12.60
2022-10-19T02:30:44.752Z,12.60
2022-10-19T02:33:12.920Z,12.50
2022-10-19T02:35:40.902Z,12.50
2022-10-19T02:38:11.925Z,12.40
2022-10-19T02:40:45.433Z,12.40
2022-10-19T02:43:19.517Z,12.30
2022-10-19T02:46:01.929Z,12.30
2022-10-19T02:48:33.404Z,12.20
2022-10-19T02:51:00.842Z,12.20
2022-10-19T02:53:28.851Z,12.20
2022-10-19T02:55:56.268Z,12.20
2022-10-19T02:58:23.540Z,12.10
2022-10-19T03:00:51.135Z,12.10
2022-10-19T03:03:18.589Z,12.00
2022-10-19T03:05:45.981Z,12.00
2022-10-19T03:08:13.494Z,12.00
2022-10-19T03:10:40.901Z,11.90
2022-10-19T03:13:08.686Z,11.90
2022-10-19T03:15:36.124Z,11.80
2022-10-19T03:18:03.545Z,11.80
2022-10-19T03:20:30.777Z,11.70
2022-10-19T03:23:01.490Z,11.70
2022-10-19T03:25:28.978Z,11.70
2022-10-19T03:27:56.302Z,11.60
2022-10-19T03:30:23.716Z,11.60
2022-10-19T03:32:51.153Z,11.60
2022-10-19T03:35:18.636Z,11.60
2022-10-19T03:37:45.868Z,11.60
2022-10-19T03:40:13.269Z,11.50
2022-10-19T03:42:40.538Z,11.50
2022-10-19T03:45:09.581Z,11.50
2022-10-19T03:47:36.990Z,11.50
2022-10-19T03:50:06.326Z,11.40
2022-10-19T03:52:33.900Z,11.40
2022-10-19T03:55:01.155Z,11.40
2022-10-19T03:57:28.458Z,11.30
2022-10-19T03:59:55.845Z,11.30
2022-10-19T04:02:23.394Z,11.30
2022-10-19T04:04:50.905Z,11.30
2022-10-19T04:07:18.571Z,11.20
2022-10-19T04:09:46.120Z,11.10
2022-10-19T04:12:13.348Z,11.10
2022-10-19T04:14:56.446Z,11.00
2022-10-19T04:17:25.401Z,11.00
2022-10-19T04:19:53.801Z,11.00
2022-10-19T04:22:21.383Z,11.00
2022-10-19T04:24:48.748Z,11.00
2022-10-19T04:27:16.108Z,11.10
2022-10-19T04:29:43.470Z,11.00
2022-10-19T04:32:10.669Z,11.10
2022-10-19T04:34:39.987Z,11.00
2022-10-19T04:37:07.682Z,11.00
2022-10-19T04:39:34.984Z,11.00
2022-10-19T04:42:02.322Z,11.00
2022-10-19T04:44:29.741Z,11.00
2022-10-19T04:46:56.992Z,11.00
2022-10-19T04:49:24.419Z,11.10
2022-10-19T04:51:51.746Z,11.10
2022-10-19T04:54:19.111Z,11.10
2022-10-19T04:56:46.369Z,11.20
2022-10-19T04:59:13.699Z,11.20
2022-10-19T05:01:46.480Z,11.20
2022-10-19T05:04:14.906Z,11.20
2022-10-19T05:06:42.493Z,11.20
2022-10-19T05:09:09.701Z,11.20
2022-10-19T05:11:37.015Z,11.30
2022-10-19T05:14:04.204Z,11.30
2022-10-19T05:16:31.720Z,11.30
2022-10-19T05:18:59.920Z,11.40
2022-10-19T05:21:29.153Z,11.50
2022-10-19T05:23:57.468Z,11.50
2022-10-19T05:26:27.690Z,11.60
2022-10-19T05:28:58.297Z,11.60
2022-10-19T05:31:27.841Z,11.60
2022-10-19T05:33:56.620Z,11.60
2022-10-19T05:36:28.760Z,11.60
2022-10-19T05:38:59.455Z,11.70
2022-10-19T05:41:27.116Z,11.70
2022-10-19T05:43:56.885Z,11.70
2022-10-19T05:46:25.109Z,11.80
2022-10-19T05:48:52.509Z,11.80
2022-10-19T05:51:21.871Z,11.80
2022-10-19T05:53:49.945Z,11.80
2022-10-19T05:56:20.448Z,11.80
2022-10-19T05:58:48.663Z,11.80
2022-10-19T06:01:19.288Z,11.80
2022-10-19T06:03:47.569Z,11.80
2022-10-19T06:06:15.540Z,11.80
2022-10-19T06:08:42.902Z,11.80
2022-10-19T06:11:16.893Z,11.80
2022-10-19T06:13:45.993Z,11.80
2022-10-19T06:16:16.230Z,11.80
2022-10-19T06:18:44.273Z,11.80
2022-10-19T06:21:15.641Z,11.80
2022-10-19T06:23:43.339Z,11.80
2022-10-19T06:26:13.296Z,11.80
2022-10-19T06:28:42.270Z,11.80
2022-10-19T06:31:10.191Z,11.90
2022-10-19T06:33:39.263Z,11.90
2022-10-19T06:36:12.644Z,11.90
2022-10-19T06:38:40.264Z,11.90
2022-10-19T06:41:07.677Z,11.90
2022-10-19T06:43:35.423Z,11.90
2022-10-19T06:46:15.834Z,11.90
2022-10-19T06:48:43.695Z,11.90
2022-10-19T06:51:12.093Z,11.90
2022-10-19T06:53:39.523Z,11.90
2022-10-19T06:56:07.665Z,12.00
2022-10-19T06:58:39.642Z,12.10
2022-10-19T07:01:10.666Z,12.30
2022-10-19T07:03:38.543Z,12.30
2022-10-19T07:06:08.604Z,12.30
2022-10-19T07:08:38.450Z,12.30
2022-10-19T07:11:08.850Z,12.30
2022-10-19T07:13:36.366Z,12.20
2022-10-19T07:16:16.064Z,12.20
2022-10-19T07:18:47.712Z,12.20
2022-10-19T07:21:17.141Z,12.20
2022-10-19T07:23:47.375Z,12.20
2022-10-19T07:26:27.482Z,12.20
2022-10-19T07:28:57.307Z,12.20
2022-10-19T07:31:27.027Z,12.20
2022-10-19T07:33:55.911Z,12.20
2022-10-19T07:36:25.191Z,12.20
2022-10-19T07:38:53.332Z,12.20
2022-10-19T07:41:23.941Z,12.20
2022-10-19T07:43:52.294Z,12.20
2022-10-19T07:46:22.546Z,12.20
2022-10-19T07:48:50.062Z,12.30
2022-10-19T07:51:18.965Z,12.40
2022-10-19T07:53:47.038Z,12.50
2022-10-19T07:56:20.667Z,12.50
2022-10-19T07:58:49.428Z,12.50
2022-10-19T08:01:22.434Z,12.60
2022-10-19T08:06:39.640Z,12.70
2022-10-19T08:09:07.766Z,12.70
2022-10-19T08:11:36.233Z,12.80
2022-10-19T08:14:04.166Z,12.80
2022-10-19T08:16:39.474Z,12.80
2022-10-19T08:19:10.530Z,12.90
2022-10-19T08:21:39.934Z,13.00
2022-10-19T08:24:08.331Z,13.10
2022-10-19T08:26:38.547Z,13.10
2022-10-19T08:29:13.161Z,13.10
2022-10-19T08:31:42.236Z,13.10
2022-10-19T08:34:13.712Z,13.20
2022-10-19T08:39:12.828Z,13.50
2022-10-19T08:41:56.179Z,13.60
2022-10-19T08:44:51.242Z,13.60
2022-10-19T08:47:37.558Z,13.70
2022-10-19T08:50:26.502Z,13.80
2022-10-19T08:53:06.588Z,13.90
2022-10-19T08:56:22.111Z,13.90
2022-10-19T08:59:22.476Z,13.80
2022-10-19T09:02:15.517Z,13.70
2022-10-19T09:04:50.585Z,13.70
2022-10-19T09:07:45.381Z,13.70
2022-10-19T09:10:12.620Z,13.70
2022-10-19T09:12:58.856Z,13.70
2022-10-19T09:15:47.702Z,13.70
2022-10-19T09:18:25.154Z,13.70
2022-10-19T09:21:07.050Z,13.70
2022-10-19T09:24:03.840Z,13.80
2022-10-19T09:26:35.967Z,13.90
2022-10-19T09:29:17.098Z,13.90
2022-10-19T09:31:45.311Z,13.90
2022-10-19T09:34:36.375Z,14.00
2022-10-19T09:37:04.551Z,14.10
2022-10-19T09:39:32.202Z,14.60
2022-10-19T09:42:34.444Z,14.90
2022-10-19T09:45:15.040Z,15.80
2022-10-19T09:47:46.324Z,16.70
2022-10-19T09:50:23.891Z,17.00
2022-10-19T09:52:58.900Z,16.60
2022-10-19T09:58:17.604Z,15.80
2022-10-19T10:00:44.873Z,15.40
2022-10-19T10:03:32.987Z,15.00
2022-10-19T10:06:08.146Z,14.80
2022-10-19T10:08:40.784Z,15.00
2022-10-19T10:11:23.633Z,15.60
2022-10-19T10:13:53.871Z,15.80
2022-10-19T10:16:23.993Z,15.70
2022-10-19T10:18:57.790Z,16.10
2022-10-19T10:21:35.179Z,16.00
2022-10-19T10:24:17.310Z,15.70
2022-10-19T10:26:47.311Z,16.60
2022-10-19T10:29:35.524Z,16.90
2022-10-19T10:32:18.269Z,16.60
2022-10-19T10:35:08.526Z,16.30
2022-10-19T10:37:43.625Z,16.30
2022-10-19T10:40:30.387Z,16.60
2022-10-19T10:43:14.461Z,17.50
2022-10-19T10:45:48.007Z,18.40
2022-10-19T10:48:31.940Z,17.80
2022-10-19T10:51:01.700Z,16.80
2022-10-19T10:53:45.598Z,16.20
2022-10-19T10:56:29.418Z,16.20
2022-10-19T10:59:05.836Z,16.20
2022-10-19T11:01:42.046Z,16.40
2022-10-19T11:04:14.493Z,16.30
2022-10-19T11:06:51.053Z,16.10
2022-10-19T11:09:42.545Z,15.90
2022-10-19T11:12:16.611Z,15.60
2022-10-19T11:14:43.810Z,15.50
2022-10-19T11:17:22.720Z,15.50
2022-10-19T11:19:51.611Z,15.30
2022-10-19T11:22:53.795Z,15.20
2022-10-19T11:25:55.579Z,15.10
2022-10-19T11:28:49.108Z,14.80
2022-10-19T11:31:25.070Z,14.60
2022-10-19T11:34:25.123Z,14.40
2022-10-19T11:37:07.957Z,14.30
2022-10-19T11:40:01.416Z,14.30
2022-10-19T11:46:00.141Z,14.50
2022-10-19T11:48:30.113Z,14.70
2022-10-19T11:51:29.971Z,14.70
2022-10-19T11:54:24.613Z,14.80
2022-10-19T11:57:07.403Z,14.70
2022-10-19T12:00:14.108Z,14.70
2022-10-19T12:03:04.232Z,14.70
2022-10-19T12:05:48.048Z,14.70
2022-10-19T12:08:38.511Z,14.60
2022-10-19T12:11:39.405Z,14.60
2022-10-19T12:14:13.900Z,14.70
2022-10-19T12:16:45.894Z,14.60
2022-10-19T12:19:22.745Z,14.70
2022-10-19T12:21:51.431Z,14.80
2022-10-19T12:24:24.218Z,14.80
2022-10-19T12:26:53.840Z,14.60
2022-10-19T12:29:32.169Z,14.60
2022-10-19T12:32:02.342Z,14.60
2022-10-19T12:34:29.720Z,14.60
2022-10-19T12:37:28.422Z,14.50
2022-10-19T12:40:19.305Z,14.40
2022-10-19T12:43:03.871Z,14.50
2022-10-19T12:45:54.815Z,14.60
2022-10-19T12:48:24.836Z,14.60
2022-10-19T12:50:54.940Z,14.50
2022-10-19T12:56:15.858Z,14.30
2022-10-19T12:58:47.760Z,14.20
2022-10-19T13:01:44.665Z,14.10
2022-10-19T13:04:28.289Z,14.00
2022-10-19T13:06:58.806Z,13.90
2022-10-19T13:09:37.964Z,13.90
2022-10-19T13:12:17.747Z,13.80
2022-10-19T13:15:03.975Z,13.70
2022-10-19T13:17:42.106Z,13.70
2022-10-19T13:20:15.459Z,13.60
2022-10-19T13:22:49.785Z,13.60
2022-10-19T13:25:17.749Z,13.50
2022-10-19T13:27:49.518Z,13.50
2022-10-19T13:30:36.395Z,13.50
2022-10-19T13:33:35.311Z,13.50
2022-10-19T13:36:05.259Z,13.50
2022-10-19T13:38:56.634Z,13.50
2022-10-19T13:41:26.492Z,13.50
2022-10-19T13:44:19.116Z,13.50
2022-10-19T13:47:04.695Z,13.60
2022-10-19T13:49:51.410Z,13.60
2022-10-19T13:52:39.650Z,13.60
2022-10-19T13:55:25.023Z,13.70
2022-10-19T13:58:29.786Z,13.70
2022-10-19T14:01:06.038Z,13.60
2022-10-19T14:03:55.410Z,13.50
2022-10-19T14:06:45.468Z,13.50
2022-10-19T14:09:49.916Z,13.50
2022-10-19T14:12:29.340Z,13.40
2022-10-19T14:14:57.423Z,13.30
2022-10-19T14:17:30.531Z,13.20
2022-10-19T14:20:00.336Z,13.10
2022-10-19T14:22:30.795Z,13.10
2022-10-19T14:25:08.110Z,13.00
2022-10-19T14:27:36.852Z,13.00
2022-10-19T14:30:06.090Z,12.90
2022-10-19T14:32:35.388Z,12.90
2022-10-19T14:35:25.157Z,12.90
2022-10-19T14:37:52.772Z,12.90
2022-10-19T14:40:38.277Z,12.90
2022-10-19T14:43:20.348Z,12.80
2022-10-19T14:46:16.175Z,12.80
2022-10-19T14:48:51.541Z,12.80
2022-10-19T14:51:37.199Z,12.80
2022-10-19T14:54:21.068Z,12.70
2022-10-19T14:56:51.125Z,12.70
2022-10-19T14:59:45.051Z,12.60
2022-10-19T15:02:34.317Z,12.60
2022-10-19T15:05:04.318Z,12.50
2022-10-19T15:07:50.478Z,12.50
2022-10-19T15:10:30.255Z,12.40
2022-10-19T15:13:05.245Z,12.40
2022-10-19T15:15:34.654Z,12.30
2022-10-19T15:18:02.730Z,12.20
2022-10-19T15:20:44.037Z,12.10
2022-10-19T15:23:49.581Z,12.00
2022-10-19T15:26:29.926Z,11.90
2022-10-19T15:29:20.223Z,11.90
2022-10-19T15:31:47.860Z,11.80
2022-10-19T15:34:31.580Z,11.80
2022-10-19T15:37:01.440Z,11.80
2022-10-19T15:39:38.945Z,11.70
2022-10-19T15:42:47.154Z,11.70
2022-10-19T15:45:36.166Z,11.70
2022-10-19T15:48:19.219Z,11.60
2022-10-19T15:50:50.149Z,11.60
2022-10-19T15:53:17.976Z,11.60
2022-10-19T15:55:46.039Z,11.50
2022-10-19T15:58:14.763Z,11.50
2022-10-19T16:00:42.683Z,11.50
2022-10-19T16:03:10.476Z,11.50
2022-10-19T16:05:38.180Z,11.50
2022-10-19T16:08:08.931Z,11.50
2022-10-19T16:10:38.954Z,11.50
2022-10-19T16:13:06.393Z,11.50
2022-10-19T16:15:33.901Z,11.50
2022-10-19T16:18:02.905Z,11.50
2022-10-19T16:20:31.528Z,11.50
2022-10-19T16:23:00.647Z,11.50
2022-10-19T16:25:28.314Z,11.40
2022-10-19T16:27:55.867Z,11.40
2022-10-19T16:30:23.158Z,11.40
2022-10-19T16:32:51.343Z,11.40
2022-10-19T16:35:19.988Z,11.30
2022-10-19T16:37:48.683Z,11.30
2022-10-19T16:40:16.113Z,11.20
2022-10-19T16:42:43.719Z,11.10
2022-10-19T16:45:11.955Z,11.10
2022-10-19T16:47:39.454Z,11.00
2022-10-19T16:50:11.480Z,11.00
2022-10-19T16:52:39.095Z,11.00
2022-10-19T16:55:09.204Z,11.00
2022-10-19T16:57:37.273Z,11.00
2022-10-19T17:00:06.929Z,10.90
2022-10-19T17:02:34.514Z,10.90
2022-10-19T17:05:03.099Z,11.00
2022-10-19T17:07:32.776Z,11.00
2022-10-19T17:10:00.121Z,11.00
2022-10-19T17:12:28.265Z,11.00
2022-10-19T17:15:02.941Z,11.00
2022-10-19T17:17:44.306Z,11.00
2022-10-19T17:20:12.595Z,11.00
2022-10-19T17:22:40.864Z,11.00
2022-10-19T17:25:08.476Z,11.00
2022-10-19T17:27:35.972Z,11.00
2022-10-19T17:30:03.493Z,11.10
2022-10-19T17:32:30.764Z,11.10
2022-10-19T17:34:58.306Z,11.10
2022-10-19T17:37:26.482Z,11.10
2022-10-19T17:39:54.499Z,11.10
2022-10-19T17:42:22.017Z,11.20
2022-10-19T17:44:55.380Z,11.20
2022-10-19T17:47:23.265Z,11.10
2022-10-19T17:49:58.069Z,11.10
2022-10-19T17:52:31.763Z,11.10
2022-10-19T17:55:12.822Z,11.10
2022-10-19T17:57:41.229Z,11.10
2022-10-19T18:00:09.454Z,11.10
2022-10-19T18:02:47.100Z,11.10
2022-10-19T18:05:18.289Z,11.10
2022-10-19T18:07:46.720Z,11.10
2022-10-19T18:10:15.810Z,11.10
2022-10-19T18:12:43.161Z,11.10
2022-10-19T18:15:10.523Z,11.00
2022-10-19T18:17:38.194Z,11.00
2022-10-19T18:20:06.486Z,11.00
2022-10-19T18:22:36.721Z,11.00
2022-10-19T18:25:04.576Z,11.00
2022-10-19T18:27:32.653Z,11.10
2022-10-19T18:30:00.191Z,11.00
2022-10-19T18:32:27.438Z,11.00
2022-10-19T18:34:54.842Z,10.90
2022-10-19T18:37:22.164Z,10.90
2022-10-19T18:39:49.967Z,10.90
2022-10-19T18:42:18.103Z,10.90
2022-10-19T18:44:45.418Z,10.80
2022-10-19T18:47:14.753Z,10.70
2022-10-19T18:49:42.020Z,10.60
2022-10-19T18:52:09.268Z,10.60
2022-10-19T18:54:36.680Z,10.50
2022-10-19T18:57:04.053Z,10.40
2022-10-19T18:59:31.613Z,10.40
2022-10-19T19:01:58.922Z,10.30
2022-10-19T19:04:26.323Z,10.20
2022-10-19T19:06:58.783Z,10.10
2022-10-19T19:09:26.446Z,10.10
2022-10-19T19:11:58.065Z,10.00
2022-10-19T19:14:27.030Z,9.90
2022-10-19T19:16:55.594Z,9.90
2022-10-19T19:19:26.167Z,9.80
2022-10-19T19:21:53.945Z,9.70
2022-10-19T19:24:22.747Z,9.70
2022-10-19T19:26:59.123Z,9.60
2022-10-19T19:29:27.167Z,9.60
2022-10-19T19:31:54.528Z,9.50
2022-10-19T19:34:23.302Z,9.50
2022-10-19T19:36:50.781Z,9.40
2022-10-19T19:39:20.784Z,9.30
2022-10-19T19:41:49.727Z,9.30
2022-10-19T19:44:17.822Z,9.30
2022-10-19T19:46:45.260Z,9.30
2022-10-19T19:49:16.616Z,9.30
2022-10-19T19:51:43.914Z,9.30
2022-10-19T19:54:11.954Z,9.30
2022-10-19T19:56:40.384Z,9.30
2022-10-19T19:59:07.605Z,9.30
2022-10-19T20:01:37.614Z,9.30
2022-10-19T20:04:06.572Z,9.30
2022-10-19T20:06:38.499Z,9.30
2022-10-19T20:09:14.873Z,9.30
2022-10-19T20:11:48.950Z,9.30
2022-10-19T20:14:16.852Z,9.30
2022-10-19T20:16:44.046Z,9.30
2022-10-19T20:19:14.842Z,9.30
2022-10-19T20:21:42.597Z,9.40
2022-10-19T20:24:10.232Z,9.40
2022-10-19T20:26:37.724Z,9.40
2022-10-19T20:29:06.037Z,9.40
2022-10-19T20:31:39.669Z,9.40
2022-10-19T20:34:12.675Z,9.50
2022-10-19T20:36:40.451Z,9.50
2022-10-19T20:39:07.935Z,9.50
2022-10-19T20:41:36.312Z,9.50
2022-10-19T20:44:04.699Z,9.50
2022-10-19T20:46:32.457Z,9.40
2022-10-19T20:49:02.123Z,9.40
2022-10-19T20:51:32.609Z,9.40
2022-10-19T20:54:02.664Z,9.30
2022-10-19T20:56:35.211Z,9.30
2022-10-19T20:59:08.076Z,9.20
2022-10-19T21:01:38.393Z,9.10
2022-10-19T21:04:08.215Z,9.00
2022-10-19T21:06:39.586Z,8.90
2022-10-19T21:09:07.518Z,8.80
2022-10-19T21:11:37.452Z,8.70
2022-10-19T21:14:11.907Z,8.60
2022-10-19T21:16:39.833Z,8.60
2022-10-19T21:19:12.739Z,8.50
2022-10-19T21:21:43.478Z,8.40
2022-10-19T21:24:16.802Z,8.40
2022-10-19T21:26:45.261Z,8.30
2022-10-19T21:29:14.503Z,8.20
2022-10-19T21:31:47.867Z,8.20
2022-10-19T21:34:22.950Z,8.20
2022-10-19T21:36:50.953Z,8.10
2022-10-19T21:39:19.548Z,8.10
2022-10-19T21:41:48.230Z,8.00
2022-10-19T21:44:16.915Z,7.90
2022-10-19T21:46:44.966Z,7.90
2022-10-19T21:49:12.534Z,7.80
2022-10-19T21:51:51.680Z,7.80
2022-10-19T21:54:21.363Z,7.70
2022-10-19T21:56:49.475Z,7.60
2022-10-19T21:59:17.350Z,7.60
2022-10-19T22:01:44.901Z,7.50
2022-10-19T22:04:17.311Z,7.50
2022-10-19T22:06:45.365Z,7.50
2022-10-19T22:09:23.307Z,7.40
2022-10-19T22:11:50.970Z,7.30
2022-10-19T22:14:18.956Z,7.30
2022-10-19T22:16:46.413Z,7.30
2022-10-19T22:19:14.181Z,7.30
2022-10-19T22:21:43.558Z,7.30
2022-10-19T22:24:15.571Z,7.30
2022-10-19T22:26:46.227Z,7.30
2022-10-19T22:29:13.606Z,7.30
2022-10-19T22:31:41.109Z,7.30
2022-10-19T22:34:14.708Z,7.30
2022-10-19T22:36:42.265Z,7.30
2022-10-19T22:39:09.747Z,7.30
2022-10-19T22:41:37.116Z,7.30
2022-10-19T22:44:04.872Z,7.30
2022-10-19T22:46:32.429Z,7.40
2022-10-19T22:49:00.081Z,7.40
2022-10-19T22:51:27.775Z,7.30
2022-10-19T22:53:55.004Z,7.30
2022-10-19T22:56:22.378Z,7.30
2022-10-19T22:58:49.912Z,7.30
2022-10-19T23:01:18.363Z,7.30
2022-10-19T23:03:45.644Z,7.30
2022-10-19T23:06:14.542Z,7.30
2022-10-19T23:08:43.598Z,7.20
2022-10-19T23:11:11.652Z,7.20
2022-10-19T23:13:39.602Z,7.20
2022-10-19T23:16:07.797Z,7.20
2022-10-19T23:18:38.302Z,7.20
2022-10-19T23:21:11.993Z,7.20
2022-10-19T23:23:39.660Z,7.20
2022-10-19T23:26:06.941Z,7.20
2022-10-19T23:28:39.900Z,7.30
2022-10-19T23:31:24.715Z,7.30
2022-10-19T23:33:53.366Z,7.30
2022-10-19T23:36:23.791Z,7.30
2022-10-19T23:38:52.393Z,7.30
2022-10-19T23:41:21.744Z,7.30
2022-10-19T23:43:49.220Z,7.20
2022-10-19T23:46:19.974Z,7.20
2022-10-19T23:48:47.680Z,7.20
2022-10-19T23:51:17.738Z,7.10
2022-10-19T23:53:47.158Z,7.10
2022-10-19T23:56:17.800Z,7.10
2022-10-19T23:58:45.941Z,7.10
